Time;durP1;ratioP1;P1;durP2;ratioP2;P2;SDS_P1;SDS_P2;PMS_P1;PMS_P2;Temp;Humidity;BMP_temperature;BMP_pressure;BME280_temperature;BME280_humidity;BME280_pressure;Samples;Min_cycle;Max_cycle;Signal;HPM_P1;HPM_P2
2022/11/14 00:02:16;;;;;;;;;;;;;;;;;;5051821;28;837;-68
2022/11/14 00:04:44;;;;;;;;;;;;;;;;;;5070013;28;981;-68
2022/11/14 00:07:10;;;;;;;;;;;;;;;;;;5069967;28;1003;-68
2022/11/14 00:09:37;;;;;;;;;;;;;;;;;;5069951;28;1910;-68
2022/11/14 00:12:02;;;;;;;;;;;;;;;;;;5051929;28;1208;-68
2022/11/14 00:14:28;;;;;;;;;;;;;;;;;;5069705;28;912;-68
2022/11/14 00:16:53;;;;;;;;;;;;;;;;;;5070159;28;758;-68
2022/11/14 00:19:18;;;;;;;;;;;;;;;;;;5069798;28;880;-68
2022/11/14 00:21:43;;;;;;;;;;;;;;;;;;5069690;28;928;-68
2022/11/14 00:24:09;;;;;;;;;;;;;;;;;;5052231;28;1016;-68
2022/11/14 00:26:34;;;;;;;;;;;;;;;;;;5069474;28;809;-68
2022/11/14 00:28:59;;;;;;;;;;;;;;;;;;5051819;28;1883;-68
2022/11/14 00:31:24;;;;;;;;;;;;;;;;;;5069089;28;1069;-68
2022/11/14 00:33:50;;;;;;;;;;;;;;;;;;5052091;28;1402;-68
2022/11/14 00:36:15;;;;;;;;;;;;;;;;;;5035162;28;1486;-68
2022/11/14 00:38:40;;;;;;;;;;;;;;;;;;5069691;28;845;-68
2022/11/14 00:41:05;;;;;;;;;;;;;;;;;;5069895;28;912;-68
2022/11/14 00:43:31;;;;;;;;;;;;;;;;;;5034565;28;1234;-68
2022/11/14 00:45:56;;;;;;;;;;;;;;;;;;5051946;28;972;-68
2022/11/14 00:48:21;;;;;;;;;;;;;;;;;;5051159;28;1472;-68
2022/11/14 00:50:47;;;;;;;;;;;;;;;;;;5053035;28;1910;-68
2022/11/14 00:53:12;;;;;;;;;;;;;;;;;;5052712;28;1249;-68
2022/11/14 00:55:37;;;;;;;;;;;;;;;;;;5052633;28;846;-68
2022/11/14 00:58:03;;;;;;;;;;;;;;;;;;5070781;28;830;-68
2022/11/14 01:00:28;;;;;;;;;;;;;;;;;;5051789;28;842;-68
2022/11/14 01:02:57;;;;;;;;;;;;;;;;;;5053011;28;1262;-68
2022/11/14 01:05:25;;;;;;;;;;;;;;;;;;5052716;28;861;-68
2022/11/14 01:07:51;;;;;;;;;;;;;;;;;;5053141;28;1153;-68
2022/11/14 01:10:16;;;;;;;;;;;;;;;;;;5055195;28;1894;-68
2022/11/14 01:12:42;;;;;;;;;;;;;;;;;;5054867;28;1241;-68
2022/11/14 01:15:07;;;;;;;;;;;;;;;;;;5055727;28;1177;-68
2022/11/14 01:17:33;;;;;;;;;;;;;;;;;;5055016;28;1299;-68
2022/11/14 01:19:58;;;;;;;;;;;;;;;;;;5055243;28;1163;-68
2022/11/14 01:22:23;;;;;;;;;;;;;;;;;;5054481;28;1270;-68
2022/11/14 01:24:48;;;;;;;;;;;;;;;;;;5073434;28;949;-68
2022/11/14 01:27:14;;;;;;;;;;;;;;;;;;5038511;28;1180;-68
2022/11/14 01:29:39;;;;;;;;;;;;;;;;;;5054730;28;1956;-68
2022/11/14 01:32:05;;;;;;;;;;;;;;;;;;5072866;28;1204;-68
2022/11/14 01:34:30;;;;;;;;;;;;;;;;;;5037770;28;1241;-68
2022/11/14 01:36:55;;;;;;;;;;;;;;;;;;5073153;28;868;-68
2022/11/14 01:39:21;;;;;;;;;;;;;;;;;;5038264;28;1283;-68
2022/11/14 01:41:46;;;;;;;;;;;;;;;;;;5038406;28;1090;-68
2022/11/14 01:44:13;;;;;;;;;;;;;;;;;;5073121;28;887;-68
2022/11/14 01:46:40;;;;;;;;;;;;;;;;;;5054363;28;1493;-68
2022/11/14 01:49:32;;;;;;;;;;;;;;;;;;5054860;28;1965;-68
2022/11/14 01:51:57;;;;;;;;;;;;;;;;;;5050520;28;1393;-68
2022/11/14 01:54:26;;;;;;;;;;;;;;;;;;5072391;28;947;-67
2022/11/14 01:56:55;;;;;;;;;;;;;;;;;;5072656;28;880;-67
2022/11/14 01:59:23;;;;;;;;;;;;;;;;;;5072517;28;884;-67
2022/11/14 02:01:50;;;;;;;;;;;;;;;;;;5054204;28;1533;-67
2022/11/14 02:04:24;;;;;;;;;;;;;;;;;;5072302;28;935;-67
2022/11/14 02:06:50;;;;;;;;;;;;;;;;;;5054530;28;1387;-67
2022/11/14 02:09:15;;;;;;;;;;;;;;;;;;5054239;28;1890;-67
2022/11/14 02:11:42;;;;;;;;;;;;;;;;;;5071985;28;880;-67
2022/11/14 02:14:08;;;;;;;;;;;;;;;;;;5054396;28;1505;-67
2022/11/14 02:16:33;;;;;;;;;;;;;;;;;;5071598;28;952;-67
2022/11/14 02:18:59;;;;;;;;;;;;;;;;;;5054219;28;1266;-67
2022/11/14 02:21:24;;;;;;;;;;;;;;;;;;5071619;28;853;-67
2022/11/14 02:23:49;;;;;;;;;;;;;;;;;;5054590;28;1212;-67
2022/11/14 02:26:19;;;;;;;;;;;;;;;;;;5054107;28;904;-67
2022/11/14 02:28:45;;;;;;;;;;;;;;;;;;5071786;28;857;-67
2022/11/14 02:31:10;;;;;;;;;;;;;;;;;;5072940;28;1973;-67
2022/11/14 02:33:35;;;;;;;;;;;;;;;;;;5071818;28;1321;-67
2022/11/14 02:36:00;;;;;;;;;;;;;;;;;;5072700;28;841;-67
2022/11/14 02:38:26;;;;;;;;;;;;;;;;;;5037566;28;1284;-67
2022/11/14 02:40:51;;;;;;;;;;;;;;;;;;5072556;28;876;-67
2022/11/14 02:43:16;;;;;;;;;;;;;;;;;;5054235;28;1183;-67
2022/11/14 02:45:42;;;;;;;;;;;;;;;;;;5037135;28;1354;-67
2022/11/14 02:48:07;;;;;;;;;;;;;;;;;;5053558;28;1134;-67
2022/11/14 02:50:32;;;;;;;;;;;;;;;;;;5052889;28;1909;-67
2022/11/14 02:52:58;;;;;;;;;;;;;;;;;;5053877;28;869;-67
2022/11/14 02:55:23;;;;;;;;;;;;;;;;;;5053368;28;1246;-67
2022/11/14 02:57:48;;;;;;;;;;;;;;;;;;5053674;28;1289;-67
2022/11/14 03:00:14;;;;;;;;;;;;;;;;;;5036451;28;1290;-67
2022/11/14 03:02:39;;;;;;;;;;;;;;;;;;5070564;28;825;-67
2022/11/14 03:05:04;;;;;;;;;;;;;;;;;;5053014;28;1198;-67
2022/11/14 03:07:29;;;;;;;;;;;;;;;;;;5052692;28;916;-67
2022/11/14 03:09:55;;;;;;;;;;;;;;;;;;5053011;28;1967;-67
2022/11/14 03:12:20;;;;;;;;;;;;;;;;;;5052842;28;1412;-67
2022/11/14 03:14:45;;;;;;;;;;;;;;;;;;5070021;28;766;-67
2022/11/14 03:17:11;;;;;;;;;;;;;;;;;;5053166;28;1002;-67
2022/11/14 03:19:36;;;;;;;;;;;;;;;;;;5052520;28;1213;-67
2022/11/14 03:22:01;;;;;;;;;;;;;;;;;;5079018;28;1168;-67
2022/11/14 03:24:27;;;;;;;;;;;;;;;;;;5065020;28;1227;-68
2022/11/14 03:26:52;;;;;;;;;;;;;;;;;;5035492;28;1290;-67
2022/11/14 03:29:17;;;;;;;;;;;;;;;;;;5016199;28;1951;-67
2022/11/14 03:31:43;;;;;;;;;;;;;;;;;;5031269;28;1116;-68
2022/11/14 03:34:09;;;;;;;;;;;;;;;;;;5033098;28;1248;-67
2022/11/14 03:36:34;;;;;;;;;;;;;;;;;;5032397;28;908;-67
2022/11/14 03:39:00;;;;;;;;;;;;;;;;;;5032626;28;1181;-67
2022/11/14 03:41:25;;;;;;;;;;;;;;;;;;5050287;28;892;-67
2022/11/14 03:43:50;;;;;;;;;;;;;;;;;;5048570;28;1342;-67
2022/11/14 03:46:16;;;;;;;;;;;;;;;;;;5050215;28;975;-67
2022/11/14 03:48:41;;;;;;;;;;;;;;;;;;5032097;28;889;-67
2022/11/14 03:51:06;;;;;;;;;;;;;;;;;;5032403;28;1910;-67
2022/11/14 03:53:31;;;;;;;;;;;;;;;;;;5049873;28;963;-67
2022/11/14 03:55:57;;;;;;;;;;;;;;;;;;5050399;28;912;-67
2022/11/14 03:58:22;;;;;;;;;;;;;;;;;;5032742;28;1275;-67
2022/11/14 04:00:47;;;;;;;;;;;;;;;;;;5031667;28;893;-67
2022/11/14 04:03:12;;;;;;;;;;;;;;;;;;5050394;28;904;-68
2022/11/14 04:05:38;;;;;;;;;;;;;;;;;;5015576;28;1312;-68
2022/11/14 04:08:04;;;;;;;;;;;;;;;;;;5015651;28;1177;-68
2022/11/14 04:10:29;;;;;;;;;;;;;;;;;;5031836;28;1951;-68
2022/11/14 04:12:54;;;;;;;;;;;;;;;;;;5049939;28;865;-68
2022/11/14 04:15:20;;;;;;;;;;;;;;;;;;5050130;28;841;-68
2022/11/14 04:17:45;;;;;;;;;;;;;;;;;;5066462;28;1246;-68
2022/11/14 04:20:11;;;;;;;;;;;;;;;;;;5091405;28;817;-69
2022/11/14 04:22:36;;;;;;;;;;;;;;;;;;5090661;28;912;-68
2022/11/14 04:25:02;;;;;;;;;;;;;;;;;;5055933;28;1302;-68
2022/11/14 04:27:27;;;;;;;;;;;;;;;;;;5072414;28;849;-68
2022/11/14 04:29:52;;;;;;;;;;;;;;;;;;5072258;28;1956;-68
2022/11/14 04:32:17;;;;;;;;;;;;;;;;;;5090969;28;1243;-69
2022/11/14 04:34:43;;;;;;;;;;;;;;;;;;5088860;28;1180;-68
2022/11/14 04:37:08;;;;;;;;;;;;;;;;;;5072718;28;1318;-68
2022/11/14 04:39:33;;;;;;;;;;;;;;;;;;5088678;28;1102;-68
2022/11/14 04:41:58;;;;;;;;;;;;;;;;;;5089677;28;884;-68
2022/11/14 04:44:24;;;;;;;;;;;;;;;;;;5091142;28;952;-68
2022/11/14 04:46:49;;;;;;;;;;;;;;;;;;5074977;28;927;-68
2022/11/14 04:49:14;;;;;;;;;;;;;;;;;;5093795;28;1902;-68
2022/11/14 04:51:40;;;;;;;;;;;;;;;;;;5093658;28;932;-68
2022/11/14 04:54:05;;;;;;;;;;;;;;;;;;5075845;28;908;-68
2022/11/14 04:56:30;;;;;;;;;;;;;;;;;;5075150;28;907;-68
2022/11/14 04:58:55;;;;;;;;;;;;;;;;;;5093514;28;892;-68
2022/11/14 05:01:21;;;;;;;;;;;;;;;;;;5093562;28;808;-68
2022/11/14 05:03:46;;;;;;;;;;;;;;;;;;5058050;28;1137;-68
2022/11/14 05:06:11;;;;;;;;;;;;;;;;;;5093585;28;848;-68
2022/11/14 05:08:37;;;;;;;;;;;;;;;;;;5074997;28;975;-68
2022/11/14 05:11:02;;;;;;;;;;;;;;;;;;5058460;28;1910;-68
2022/11/14 05:13:27;;;;;;;;;;;;;;;;;;5093085;28;917;-68
2022/11/14 05:15:53;;;;;;;;;;;;;;;;;;5058093;28;1537;-69
2022/11/14 05:18:18;;;;;;;;;;;;;;;;;;5074940;28;1000;-68
2022/11/14 05:20:43;;;;;;;;;;;;;;;;;;5092895;28;813;-68
2022/11/14 05:23:18;;;;;;;;;;;;;;;;;;5074876;28;1143;-68
2022/11/14 05:25:43;;;;;;;;;;;;;;;;;;5092596;28;1029;-68
2022/11/14 05:28:08;;;;;;;;;;;;;;;;;;5092900;28;904;-68
2022/11/14 05:30:33;;;;;;;;;;;;;;;;;;5074220;28;1918;-68
2022/11/14 05:32:59;;;;;;;;;;;;;;;;;;5091542;28;1128;-68
2022/11/14 05:35:24;;;;;;;;;;;;;;;;;;5058134;28;1232;-68
2022/11/14 05:37:50;;;;;;;;;;;;;;;;;;5092266;28;864;-68
2022/11/14 05:40:16;;;;;;;;;;;;;;;;;;5074737;28;998;-68
2022/11/14 05:42:42;;;;;;;;;;;;;;;;;;5074084;28;1349;-68
2022/11/14 05:45:08;;;;;;;;;;;;;;;;;;5057615;28;1300;-68
2022/11/14 05:47:33;;;;;;;;;;;;;;;;;;5073767;28;1235;-68
2022/11/14 05:49:58;;;;;;;;;;;;;;;;;;5074381;28;1902;-69
2022/11/14 05:52:24;;;;;;;;;;;;;;;;;;5074353;28;1228;-68
2022/11/14 05:54:49;;;;;;;;;;;;;;;;;;5073549;28;881;-68
2022/11/14 05:57:14;;;;;;;;;;;;;;;;;;5057205;28;1204;-68
2022/11/14 05:59:39;;;;;;;;;;;;;;;;;;5092402;28;809;-68
2022/11/14 06:02:05;;;;;;;;;;;;;;;;;;5075537;28;814;-68
2022/11/14 06:04:30;;;;;;;;;;;;;;;;;;5057937;28;1197;-68
2022/11/14 06:06:55;;;;;;;;;;;;;;;;;;5075297;28;1018;-68
2022/11/14 06:09:21;;;;;;;;;;;;;;;;;;5075474;28;1938;-68
2022/11/14 06:11:46;;;;;;;;;;;;;;;;;;5092380;28;867;-68
2022/11/14 06:14:11;;;;;;;;;;;;;;;;;;5057447;28;1423;-68
2022/11/14 06:16:36;;;;;;;;;;;;;;;;;;5092229;28;900;-68
2022/11/14 06:19:02;;;;;;;;;;;;;;;;;;5092400;28;888;-68
2022/11/14 06:21:27;;;;;;;;;;;;;;;;;;5092377;28;841;-68
2022/11/14 06:23:52;;;;;;;;;;;;;;;;;;5073727;28;1242;-68
2022/11/14 06:26:18;;;;;;;;;;;;;;;;;;5074009;28;944;-68
2022/11/14 06:28:43;;;;;;;;;;;;;;;;;;5091695;28;975;-68
2022/11/14 06:31:08;;;;;;;;;;;;;;;;;;5091851;28;1906;-68
2022/11/14 06:33:34;;;;;;;;;;;;;;;;;;5073014;28;1396;-66
2022/11/14 06:36:01;;;;;;;;;;;;;;;;;;5073668;28;1302;-66
2022/11/14 06:38:26;;;;;;;;;;;;;;;;;;5091773;28;1340;-66
2022/11/14 06:40:52;;;;;;;;;;;;;;;;;;5091029;28;986;-66
2022/11/14 06:43:17;;;;;;;;;;;;;;;;;;5091612;28;813;-66
2022/11/14 06:45:42;;;;;;;;;;;;;;;;;;5056252;28;1248;-66
2022/11/14 06:48:08;;;;;;;;;;;;;;;;;;5091541;28;848;-66
2022/11/14 06:50:33;;;;;;;;;;;;;;;;;;5072717;28;1963;-66
2022/11/14 06:52:58;;;;;;;;;;;;;;;;;;5073201;28;1205;-66
2022/11/14 06:55:24;;;;;;;;;;;;;;;;;;5056435;28;1192;-66
2022/11/14 06:57:53;;;;;;;;;;;;;;;;;;5072833;28;1293;-66
2022/11/14 07:00:18;;;;;;;;;;;;;;;;;;5091506;28;907;-65
2022/11/14 07:02:44;;;;;;;;;;;;;;;;;;5090954;28;813;-65
2022/11/14 07:05:10;;;;;;;;;;;;;;;;;;5091255;28;828;-65
2022/11/14 07:07:35;;;;;;;;;;;;;;;;;;5090138;28;942;-65
2022/11/14 07:10:00;;;;;;;;;;;;;;;;;;5056125;28;1902;-65
2022/11/14 07:12:25;;;;;;;;;;;;;;;;;;5073138;28;932;-65
2022/11/14 07:14:51;;;;;;;;;;;;;;;;;;5090653;28;868;-65
2022/11/14 07:17:16;;;;;;;;;;;;;;;;;;5072618;28;923;-65
2022/11/14 07:19:41;;;;;;;;;;;;;;;;;;5055886;28;1337;-65
2022/11/14 07:22:06;;;;;;;;;;;;;;;;;;5056323;28;1242;-65
2022/11/14 07:24:32;;;;;;;;;;;;;;;;;;5072533;28;1196;-65
2022/11/14 07:26:57;;;;;;;;;;;;;;;;;;5072548;28;805;-65
2022/11/14 07:29:22;;;;;;;;;;;;;;;;;;5055830;28;1902;-65
2022/11/14 07:31:47;;;;;;;;;;;;;;;;;;5073232;28;1276;-65
2022/11/14 07:34:13;;;;;;;;;;;;;;;;;;5056826;28;1497;-65
2022/11/14 07:36:38;;;;;;;;;;;;;;;;;;5056782;28;1220;-65
2022/11/14 07:39:04;;;;;;;;;;;;;;;;;;5073872;28;1152;-65
2022/11/14 07:41:29;;;;;;;;;;;;;;;;;;5073533;28;1152;-66
2022/11/14 07:43:54;;;;;;;;;;;;;;;;;;5091709;28;860;-65
2022/11/14 07:46:19;;;;;;;;;;;;;;;;;;5056098;28;1184;-65
2022/11/14 07:48:45;;;;;;;;;;;;;;;;;;5071551;28;1193;-65
2022/11/14 07:51:15;;;;;;;;;;;;;;;;;;5072156;28;1972;-65
2022/11/14 07:53:40;;;;;;;;;;;;;;;;;;5090280;28;1046;-65
2022/11/14 07:56:08;;;;;;;;;;;;;;;;;;5071813;28;987;-65
2022/11/14 07:58:37;;;;;;;;;;;;;;;;;;5090195;28;853;-65
2022/11/14 08:01:03;;;;;;;;;;;;;;;;;;5090417;28;852;-65
2022/11/14 08:03:28;;;;;;;;;;;;;;;;;;5089853;28;1041;-65
2022/11/14 08:06:10;;;;;;;;;;;;;;;;;;5071732;28;991;-69
2022/11/14 08:08:36;;;;;;;;;;;;;;;;;;5070871;28;1411;-68
2022/11/14 08:11:02;;;;;;;;;;;;;;;;;;5071826;28;1897;-68
2022/11/14 08:13:27;;;;;;;;;;;;;;;;;;5072213;28;1007;-68
2022/11/14 08:15:53;;;;;;;;;;;;;;;;;;5071965;28;853;-68
2022/11/14 08:18:18;;;;;;;;;;;;;;;;;;5071651;28;1307;-68
2022/11/14 08:20:44;;;;;;;;;;;;;;;;;;5090138;28;1050;-67
2022/11/14 08:23:09;;;;;;;;;;;;;;;;;;5090715;28;888;-67
2022/11/14 08:25:35;;;;;;;;;;;;;;;;;;5071817;28;1216;-66
2022/11/14 08:28:00;;;;;;;;;;;;;;;;;;5090321;28;845;-67
2022/11/14 08:30:26;;;;;;;;;;;;;;;;;;5090354;28;1898;-67
2022/11/14 08:32:51;;;;;;;;;;;;;;;;;;5071669;28;1193;-66
2022/11/14 08:35:17;;;;;;;;;;;;;;;;;;5055174;28;1227;-67
2022/11/14 08:37:42;;;;;;;;;;;;;;;;;;5071864;28;928;-67
2022/11/14 08:40:09;;;;;;;;;;;;;;;;;;5089091;28;1183;-67
2022/11/14 08:42:35;;;;;;;;;;;;;;;;;;5055759;28;1256;-67
2022/11/14 08:45:00;;;;;;;;;;;;;;;;;;5071894;28;848;-67
2022/11/14 08:47:25;;;;;;;;;;;;;;;;;;5071624;28;1152;-66
2022/11/14 08:49:50;;;;;;;;;;;;;;;;;;5069962;28;2007;-67
2022/11/14 08:52:16;;;;;;;;;;;;;;;;;;5071089;28;860;-67
2022/11/14 08:54:41;;;;;;;;;;;;;;;;;;5071087;28;948;-67
2022/11/14 08:57:07;;;;;;;;;;;;;;;;;;5072270;28;1370;-67
2022/11/14 08:59:32;;;;;;;;;;;;;;;;;;5089933;28;888;-67
2022/11/14 09:01:57;;;;;;;;;;;;;;;;;;5089795;28;983;-67
2022/11/14 09:04:22;;;;;;;;;;;;;;;;;;5090486;28;935;-67
2022/11/14 09:06:48;;;;;;;;;;;;;;;;;;5072198;28;1370;-67
2022/11/14 09:09:13;;;;;;;;;;;;;;;;;;5090811;28;1906;-67
2022/11/14 09:11:39;;;;;;;;;;;;;;;;;;5090648;28;951;-67
2022/11/14 09:14:04;;;;;;;;;;;;;;;;;;5072833;28;1191;-67
2022/11/14 09:16:30;;;;;;;;;;;;;;;;;;5090498;28;935;-67
2022/11/14 09:18:55;;;;;;;;;;;;;;;;;;5070733;28;1489;-67
2022/11/14 09:21:20;;;;;;;;;;;;;;;;;;5071513;28;1207;-68
2022/11/14 09:23:46;;;;;;;;;;;;;;;;;;5071283;28;1076;-68
2022/11/14 09:26:12;;;;;;;;;;;;;;;;;;5072054;28;1227;-67
2022/11/14 09:28:37;;;;;;;;;;;;;;;;;;5089768;28;940;-67
2022/11/14 09:31:04;;;;;;;;;;;;;;;;;;5074135;28;1955;-69
2022/11/14 09:33:29;;;;;;;;;;;;;;;;;;5093528;28;1219;-68
2022/11/14 09:35:55;;;;;;;;;;;;;;;;;;5093069;28;912;-68
2022/11/14 09:38:20;;;;;;;;;;;;;;;;;;5075320;28;880;-69
2022/11/14 09:40:46;;;;;;;;;;;;;;;;;;5075134;28;968;-68
2022/11/14 09:43:11;;;;;;;;;;;;;;;;;;5075584;28;1154;-68
2022/11/14 09:45:41;;;;;;;;;;;;;;;;;;5092960;28;956;-68
2022/11/14 09:48:11;;;;;;;;;;;;;;;;;;5093230;28;944;-68
2022/11/14 09:50:39;;;;;;;;;;;;;;;;;;5074413;28;1902;-68
2022/11/14 09:53:14;;;;;;;;;;;;;;;;;;5093412;28;750;-67
2022/11/14 09:55:39;;;;;;;;;;;;;;;;;;5092991;28;1003;-68
2022/11/14 09:58:08;;;;;;;;;;;;;;;;;;5093392;28;990;-68
2022/11/14 10:01:00;;;;;;;;;;;;;;;;;;5092795;28;900;-68
2022/11/14 10:03:36;;;;;;;;;;;;;;;;;;5088619;28;1042;-68
2022/11/14 10:06:17;;;;;;;;;;;;;;;;;;5074211;28;1391;-68
2022/11/14 10:08:48;;;;;;;;;;;;;;;;;;5092053;28;853;-68
2022/11/14 10:11:29;;;;;;;;;;;;;;;;;;5074597;28;1890;-68
2022/11/14 10:14:13;;;;;;;;;;;;;;;;;;5074513;28;1199;-68
2022/11/14 10:16:38;;;;;;;;;;;;;;;;;;5074541;28;1487;-68
2022/11/14 10:19:12;;;;;;;;;;;;;;;;;;5074345;28;1374;-68
2022/11/14 10:21:38;;;;;;;;;;;;;;;;;;5092543;28;849;-68
2022/11/14 10:24:21;;;;;;;;;;;;;;;;;;5092519;28;892;-68
2022/11/14 10:26:56;;;;;;;;;;;;;;;;;;5092184;28;832;-68
2022/11/14 10:29:37;;;;;;;;;;;;;;;;;;5092369;28;1897;-68
2022/11/14 10:32:13;;;;;;;;;;;;;;;;;;5092471;28;1713;-68
2022/11/14 10:34:46;;;;;;;;;;;;;;;;;;5092262;28;1219;-68
2022/11/14 10:37:11;;;;;;;;;;;;;;;;;;5075408;28;1203;-68
2022/11/14 10:39:38;;;;;;;;;;;;;;;;;;5073960;28;1261;-68
2022/11/14 10:42:09;;;;;;;;;;;;;;;;;;5092764;28;816;-68
2022/11/14 10:44:41;;;;;;;;;;;;;;;;;;5092704;28;778;-68
2022/11/14 10:47:12;;;;;;;;;;;;;;;;;;5092860;28;824;-68
2022/11/14 10:49:38;;;;;;;;;;;;;;;;;;5091729;28;1906;-68
2022/11/14 10:52:11;;;;;;;;;;;;;;;;;;5073537;28;1187;-68
2022/11/14 10:54:45;;;;;;;;;;;;;;;;;;5091436;28;833;-68
2022/11/14 10:57:15;;;;;;;;;;;;;;;;;;5073834;28;1378;-68
2022/11/14 10:59:41;;;;;;;;;;;;;;;;;;5072666;28;1147;-68
2022/11/14 11:02:07;;;;;;;;;;;;;;;;;;5091971;28;837;-68
2022/11/14 11:04:33;;;;;;;;;;;;;;;;;;5091390;28;848;-68
2022/11/14 11:07:01;;;;;;;;;;;;;;;;;;5072895;28;1449;-68
2022/11/14 11:12:21;;;;;;;;;;;;;;;;;;5091941;28;666;-68
2022/11/14 11:14:48;;;;;;;;;;;;;;;;;;5090354;28;959;-67
2022/11/14 11:17:14;;;;;;;;;;;;;;;;;;5091558;28;784;-68
2022/11/14 11:19:40;;;;;;;;;;;;;;;;;;5091133;28;904;-68
2022/11/14 11:22:22;;;;;;;;;;;;;;;;;;5091590;28;1054;-68
2022/11/14 11:24:48;;;;;;;;;;;;;;;;;;5071905;28;1148;-68
2022/11/14 11:27:21;;;;;;;;;;;;;;;;;;5091002;28;829;-68
2022/11/14 11:30:01;;;;;;;;;;;;;;;;;;5089805;28;1964;-68
2022/11/14 11:32:26;;;;;;;;;;;;;;;;;;5090824;28;817;-68
2022/11/14 11:34:52;;;;;;;;;;;;;;;;;;5090010;28;1045;-68
2022/11/14 11:37:20;;;;;;;;;;;;;;;;;;5072855;28;1275;-68
2022/11/14 11:39:51;;;;;;;;;;;;;;;;;;5090317;28;841;-68
2022/11/14 11:42:37;;;;;;;;;;;;;;;;;;5072396;28;1288;-68
2022/11/14 11:45:04;;;;;;;;;;;;;;;;;;5087428;28;1155;-67
2022/11/14 11:47:32;;;;;;;;;;;;;;;;;;5088078;28;1118;-69
2022/11/14 11:50:01;;;;;;;;;;;;;;;;;;5089071;28;1901;-69
2022/11/14 11:52:29;;;;;;;;;;;;;;;;;;5090436;28;912;-67
2022/11/14 11:55:06;;;;;;;;;;;;;;;;;;5090127;28;865;-67
2022/11/14 11:57:34;;;;;;;;;;;;;;;;;;5090433;28;829;-68
2022/11/14 12:00:12;;;;;;;;;;;;;;;;;;5071786;28;1172;-68
2022/11/14 12:02:40;;;;;;;;;;;;;;;;;;5090240;28;1243;-68
2022/11/14 12:05:06;;;;;;;;;;;;;;;;;;5090499;28;884;-68
2022/11/14 12:07:34;;;;;;;;;;;;;;;;;;5090091;28;912;-68
2022/11/14 12:10:02;;;;;;;;;;;;;;;;;;5071505;28;1886;-68
2022/11/14 12:12:40;;;;;;;;;;;;;;;;;;5090553;28;900;-68
2022/11/14 12:15:05;;;;;;;;;;;;;;;;;;5091448;28;840;-68
2022/11/14 12:17:49;;;;;;;;;;;;;;;;;;5072731;28;1203;-68
2022/11/14 12:20:17;;;;;;;;;;;;;;;;;;5072924;28;1179;-68
2022/11/14 12:23:01;;;;;;;;;;;;;;;;;;5072001;28;1117;-68
2022/11/14 12:25:45;;;;;;;;;;;;;;;;;;5091022;28;924;-68
2022/11/14 12:28:29;;;;;;;;;;;;;;;;;;5072275;28;1227;-68
2022/11/14 12:30:57;;;;;;;;;;;;;;;;;;5072108;28;2030;-68
2022/11/14 12:33:25;;;;;;;;;;;;;;;;;;5082353;28;1280;-68
2022/11/14 12:35:52;;;;;;;;;;;;;;;;;;5049730;28;805;-68
2022/11/14 12:38:19;;;;;;;;;;;;;;;;;;5049326;28;1199;-68
2022/11/14 12:40:52;;;;;;;;;;;;;;;;;;5048206;28;1401;-68
2022/11/14 12:43:44;;;;;;;;;;;;;;;;;;5049904;28;923;-68
2022/11/14 12:46:12;;;;;;;;;;;;;;;;;;5046272;28;1209;-68
2022/11/14 12:48:38;;;;;;;;;;;;;;;;;;5031452;28;1358;-68
2022/11/14 12:51:04;;;;;;;;;;;;;;;;;;5049138;28;1973;-68
2022/11/14 12:53:36;;;;;;;;;;;;;;;;;;5049659;28;880;-68
2022/11/14 12:56:01;;;;;;;;;;;;;;;;;;5047577;28;1218;-68
2022/11/14 12:58:29;;;;;;;;;;;;;;;;;;5049909;28;824;-68
2022/11/14 13:01:01;;;;;;;;;;;;;;;;;;5047849;28;1246;-68
2022/11/14 13:03:35;;;;;;;;;;;;;;;;;;5048570;28;1227;-68
2022/11/14 13:06:08;;;;;;;;;;;;;;;;;;5051319;28;888;-68
2022/11/14 13:08:46;;;;;;;;;;;;;;;;;;5053259;28;915;-68
2022/11/14 13:22:39;;;;;;;;;;;;;;;;;;5053443;28;935;-68
2022/11/14 13:25:10;;;;;;;;;;;;;;;;;;5051742;28;1152;-68
2022/11/14 13:27:36;;;;;;;;;;;;;;;;;;5052212;28;1205;-68
2022/11/14 13:30:06;;;;;;;;;;;;;;;;;;5051276;28;1959;-68
2022/11/14 13:32:40;;;;;;;;;;;;;;;;;;5051930;28;1262;-68
2022/11/14 13:35:16;;;;;;;;;;;;;;;;;;5092930;28;995;-68
2022/11/14 13:37:47;;;;;;;;;;;;;;;;;;5075158;28;1108;-68
2022/11/14 13:40:20;;;;;;;;;;;;;;;;;;5093271;28;904;-67
2022/11/14 13:42:48;;;;;;;;;;;;;;;;;;5074319;28;1227;-68
2022/11/14 13:45:16;;;;;;;;;;;;;;;;;;5074892;28;1236;-68
2022/11/14 13:48:00;;;;;;;;;;;;;;;;;;5074654;28;1464;-67
2022/11/14 13:50:29;;;;;;;;;;;;;;;;;;5092357;28;1975;-67
2022/11/14 13:52:55;;;;;;;;;;;;;;;;;;5073732;28;1309;-68
2022/11/14 13:55:22;;;;;;;;;;;;;;;;;;5074975;28;932;-67
2022/11/14 13:58:05;;;;;;;;;;;;;;;;;;5092968;28;893;-67
2022/11/14 14:00:49;;;;;;;;;;;;;;;;;;5075365;28;1618;-67
2022/11/14 14:03:31;;;;;;;;;;;;;;;;;;5093616;28;853;-67
2022/11/14 14:05:56;;;;;;;;;;;;;;;;;;5092567;28;994;-67
2022/11/14 14:08:21;;;;;;;;;;;;;;;;;;5075212;28;1341;-67
2022/11/14 14:11:00;;;;;;;;;;;;;;;;;;5092479;28;1951;-67
2022/11/14 14:13:35;;;;;;;;;;;;;;;;;;5093065;28;844;-68
2022/11/14 14:16:30;;;;;;;;;;;;;;;;;;5091429;28;801;-68
2022/11/14 14:19:14;;;;;;;;;;;;;;;;;;5055632;28;1192;-68
2022/11/14 14:21:55;;;;;;;;;;;;;;;;;;5092046;28;903;-68
2022/11/14 14:24:40;;;;;;;;;;;;;;;;;;5091992;28;1043;-68
2022/11/14 14:27:15;;;;;;;;;;;;;;;;;;5091751;28;979;-68
2022/11/14 14:29:44;;;;;;;;;;;;;;;;;;5092308;28;1886;-68
2022/11/14 14:32:14;;;;;;;;;;;;;;;;;;5073832;28;1116;-67
2022/11/14 14:34:40;;;;;;;;;;;;;;;;;;5092180;28;1226;-68
2022/11/14 14:37:26;;;;;;;;;;;;;;;;;;5091551;28;821;-68
2022/11/14 14:39:55;;;;;;;;;;;;;;;;;;5090689;28;1260;-68
2022/11/14 14:42:21;;;;;;;;;;;;;;;;;;5091801;28;809;-68
2022/11/14 14:44:47;;;;;;;;;;;;;;;;;;5091498;28;884;-68
2022/11/14 14:47:25;;;;;;;;;;;;;;;;;;5092120;28;872;-68
2022/11/14 14:49:50;;;;;;;;;;;;;;;;;;5072847;28;1961;-68
2022/11/14 14:52:32;;;;;;;;;;;;;;;;;;5092188;28;781;-68
2022/11/14 14:55:01;;;;;;;;;;;;;;;;;;5091189;28;833;-68
2022/11/14 14:57:26;;;;;;;;;;;;;;;;;;5073438;28;1263;-68
2022/11/14 15:00:02;;;;;;;;;;;;;;;;;;5090904;28;857;-68
2022/11/14 15:02:28;;;;;;;;;;;;;;;;;;5091786;28;1012;-68
2022/11/14 15:04:54;;;;;;;;;;;;;;;;;;5056458;28;1200;-68
2022/11/14 15:07:21;;;;;;;;;;;;;;;;;;5057233;28;1195;-68
2022/11/14 15:09:54;;;;;;;;;;;;;;;;;;5072664;28;2015;-68
2022/11/14 15:12:20;;;;;;;;;;;;;;;;;;5074019;28;1215;-68
2022/11/14 15:14:47;;;;;;;;;;;;;;;;;;5015800;28;1209;-67
2022/11/14 15:17:12;;;;;;;;;;;;;;;;;;5053040;28;1232;-68
2022/11/14 15:19:39;;;;;;;;;;;;;;;;;;5035529;28;1228;-68
2022/11/14 15:22:05;;;;;;;;;;;;;;;;;;5050713;28;979;-68
2022/11/14 15:24:30;;;;;;;;;;;;;;;;;;5033432;28;1204;-68
2022/11/14 15:26:56;;;;;;;;;;;;;;;;;;5032571;28;1337;-68
2022/11/14 15:29:22;;;;;;;;;;;;;;;;;;5033041;28;1078;-68
2022/11/14 15:31:49;;;;;;;;;;;;;;;;;;5033485;28;1951;-68
2022/11/14 15:34:36;;;;;;;;;;;;;;;;;;5035020;28;1248;-68
2022/11/14 15:37:15;;;;;;;;;;;;;;;;;;5051492;28;940;-68
2022/11/14 15:39:41;;;;;;;;;;;;;;;;;;5051693;28;880;-68
2022/11/14 15:42:35;;;;;;;;;;;;;;;;;;5050752;28;818;-68
2022/11/14 15:45:19;;;;;;;;;;;;;;;;;;5028919;28;1259;-68
2022/11/14 15:47:44;;;;;;;;;;;;;;;;;;5051073;28;988;-68
2022/11/14 15:50:12;;;;;;;;;;;;;;;;;;5016088;28;1979;-68
2022/11/14 15:52:39;;;;;;;;;;;;;;;;;;5032960;28;1291;-68
2022/11/14 15:55:11;;;;;;;;;;;;;;;;;;5050097;28;893;-70
2022/11/14 15:57:36;;;;;;;;;;;;;;;;;;5050956;28;769;-69
2022/11/14 16:00:02;;;;;;;;;;;;;;;;;;5049839;28;966;-69
2022/11/14 16:02:30;;;;;;;;;;;;;;;;;;5049458;28;1215;-69
2022/11/14 16:04:56;;;;;;;;;;;;;;;;;;5049934;28;837;-69
2022/11/14 16:07:21;;;;;;;;;;;;;;;;;;5032387;28;1117;-69
2022/11/14 16:09:47;;;;;;;;;;;;;;;;;;5049847;28;1946;-69
2022/11/14 16:12:12;;;;;;;;;;;;;;;;;;5015716;28;1335;-69
2022/11/14 16:14:38;;;;;;;;;;;;;;;;;;5032463;28;1121;-69
2022/11/14 16:17:04;;;;;;;;;;;;;;;;;;5031764;28;880;-69
2022/11/14 16:19:29;;;;;;;;;;;;;;;;;;5032025;28;1303;-70
2022/11/14 16:22:01;;;;;;;;;;;;;;;;;;5031493;28;1251;-69
2022/11/14 16:24:26;;;;;;;;;;;;;;;;;;5032722;28;888;-69
2022/11/14 16:26:52;;;;;;;;;;;;;;;;;;5049724;28;908;-69
2022/11/14 16:29:17;;;;;;;;;;;;;;;;;;5015342;28;1366;-69
2022/11/14 16:31:43;;;;;;;;;;;;;;;;;;5015946;28;1970;-69
2022/11/14 16:34:14;;;;;;;;;;;;;;;;;;5015090;28;1268;-69
2022/11/14 16:36:40;;;;;;;;;;;;;;;;;;5032869;28;1224;-69
2022/11/14 16:39:10;;;;;;;;;;;;;;;;;;5050286;28;952;-69
2022/11/14 16:41:35;;;;;;;;;;;;;;;;;;5037176;28;893;-69
2022/11/14 16:44:00;;;;;;;;;;;;;;;;;;5054083;28;747;-69
2022/11/14 16:46:25;;;;;;;;;;;;;;;;;;5036783;28;817;-69
2022/11/14 16:48:51;;;;;;;;;;;;;;;;;;5053898;28;940;-68
2022/11/14 16:51:16;;;;;;;;;;;;;;;;;;5054351;28;2000;-69
2022/11/14 16:53:41;;;;;;;;;;;;;;;;;;5037011;28;817;-69
2022/11/14 16:56:09;;;;;;;;;;;;;;;;;;5035907;28;984;-68
2022/11/14 16:58:37;;;;;;;;;;;;;;;;;;5054431;28;996;-68
2022/11/14 17:01:02;;;;;;;;;;;;;;;;;;5020292;28;1335;-68
2022/11/14 17:03:27;;;;;;;;;;;;;;;;;;5037402;28;1535;-68
2022/11/14 17:05:52;;;;;;;;;;;;;;;;;;5036844;28;979;-68
2022/11/14 17:08:18;;;;;;;;;;;;;;;;;;5055082;28;920;-68
2022/11/14 17:10:44;;;;;;;;;;;;;;;;;;5037252;28;1898;-68
2022/11/14 17:13:09;;;;;;;;;;;;;;;;;;5037325;28;976;-68
2022/11/14 17:15:35;;;;;;;;;;;;;;;;;;5037092;28;1192;-69
2022/11/14 17:18:00;;;;;;;;;;;;;;;;;;5036568;28;825;-68
2022/11/14 17:20:25;;;;;;;;;;;;;;;;;;5020492;28;1320;-69
2022/11/14 17:22:50;;;;;;;;;;;;;;;;;;5053110;28;1237;-68
2022/11/14 17:25:16;;;;;;;;;;;;;;;;;;5018617;28;1237;-69
2022/11/14 17:27:41;;;;;;;;;;;;;;;;;;5035895;28;1200;-68
2022/11/14 17:30:09;;;;;;;;;;;;;;;;;;5052549;28;1908;-68